sensor_id;sensor_type;location;lat;lon;timestamp;pressure;altitude;pressure_sealevel;temperature;humidity
78855;BME280;68206;59.956;30.234;2023-03-12T00:00:25;98376.84;;;-1.35;86.46
78855;BME280;68206;59.956;30.234;2023-03-12T00:02:54;98376.72;;;-1.29;87.59
78855;BME280;68206;59.956;30.234;2023-03-12T00:05:23;98373.28;;;-1.29;87.78
78855;BME280;68206;59.956;30.234;2023-03-12T00:07:52;98367.94;;;-1.23;87.70
78855;BME280;68206;59.956;30.234;2023-03-12T00:10:25;98368.78;;;-1.21;87.83
78855;BME280;68206;59.956;30.234;2023-03-12T00:12:54;98363.56;;;-1.19;88.03
78855;BME280;68206;59.956;30.234;2023-03-12T00:15:24;98353.06;;;-1.16;88.46
78855;BME280;68206;59.956;30.234;2023-03-12T00:17:52;98355.63;;;-1.13;88.02
78855;BME280;68206;59.956;30.234;2023-03-12T00:20:20;98353.03;;;-1.13;86.96
78855;BME280;68206;59.956;30.234;2023-03-12T00:22:49;98352.09;;;-1.11;87.31
78855;BME280;68206;59.956;30.234;2023-03-12T00:25:17;98339.91;;;-1.07;87.50
78855;BME280;68206;59.956;30.234;2023-03-12T00:27:46;98339.00;;;-1.06;87.02
78855;BME280;68206;59.956;30.234;2023-03-12T00:30:15;98333.84;;;-1.08;87.59
78855;BME280;68206;59.956;30.234;2023-03-12T00:32:44;98330.25;;;-1.02;88.21
78855;BME280;68206;59.956;30.234;2023-03-12T00:35:12;98331.97;;;-1.01;88.43
78855;BME280;68206;59.956;30.234;2023-03-12T00:37:40;98327.56;;;-0.99;88.10
78855;BME280;68206;59.956;30.234;2023-03-12T00:40:10;98334.44;;;-0.95;88.42
78855;BME280;68206;59.956;30.234;2023-03-12T00:42:38;98332.63;;;-0.93;88.30
78855;BME280;68206;59.956;30.234;2023-03-12T00:45:07;98325.75;;;-0.94;88.04
78855;BME280;68206;59.956;30.234;2023-03-12T00:47:35;98326.53;;;-0.92;88.54
78855;BME280;68206;59.956;30.234;2023-03-12T00:50:05;98319.59;;;-0.92;88.49
78855;BME280;68206;59.956;30.234;2023-03-12T00:52:34;98324.78;;;-0.90;87.85
78855;BME280;68206;59.956;30.234;2023-03-12T00:55:02;98317.94;;;-0.94;86.60
78855;BME280;68206;59.956;30.234;2023-03-12T00:57:30;98326.63;;;-0.95;85.95
78855;BME280;68206;59.956;30.234;2023-03-12T00:59:59;98318.88;;;-0.98;86.52
78855;BME280;68206;59.956;30.234;2023-03-12T01:02:27;98318.00;;;-0.97;85.29
78855;BME280;68206;59.956;30.234;2023-03-12T01:04:55;98320.59;;;-0.97;85.36
78855;BME280;68206;59.956;30.234;2023-03-12T01:07:25;98309.31;;;-0.96;85.32
78855;BME280;68206;59.956;30.234;2023-03-12T01:09:53;98315.34;;;-0.94;85.36
78855;BME280;68206;59.956;30.234;2023-03-12T01:12:21;98309.31;;;-0.96;85.66
78855;BME280;68206;59.956;30.234;2023-03-12T01:14:50;98311.00;;;-0.95;85.64
78855;BME280;68206;59.956;30.234;2023-03-12T01:17:18;98310.13;;;-0.94;85.89
78855;BME280;68206;59.956;30.234;2023-03-12T01:19:46;98303.09;;;-0.91;85.79
78855;BME280;68206;59.956;30.234;2023-03-12T01:22:14;98298.78;;;-0.92;85.69
78855;BME280;68206;59.956;30.234;2023-03-12T01:24:44;98310.13;;;-0.94;84.78
78855;BME280;68206;59.956;30.234;2023-03-12T01:27:12;98300.53;;;-0.92;84.54
78855;BME280;68206;59.956;30.234;2023-03-12T01:29:40;98304.00;;;-0.93;85.25
78855;BME280;68206;59.956;30.234;2023-03-12T01:32:08;98298.81;;;-0.93;83.67
78855;BME280;68206;59.956;30.234;2023-03-12T01:34:36;98302.25;;;-0.91;84.61
78855;BME280;68206;59.956;30.234;2023-03-12T01:37:05;98295.31;;;-0.92;84.33
78855;BME280;68206;59.956;30.234;2023-03-12T01:39:33;98302.25;;;-0.91;85.16
78855;BME280;68206;59.956;30.234;2023-03-12T01:42:03;98296.22;;;-0.93;84.89
78855;BME280;68206;59.956;30.234;2023-03-12T01:44:47;98288.38;;;-0.92;84.00
78855;BME280;68206;59.956;30.234;2023-03-12T01:47:16;98289.34;;;-0.96;83.42
78855;BME280;68206;59.956;30.234;2023-03-12T01:49:44;98281.66;;;-1.00;84.17
78855;BME280;68206;59.956;30.234;2023-03-12T01:52:15;98280.88;;;-1.05;83.68
78855;BME280;68206;59.956;30.234;2023-03-12T01:54:53;98281.84;;;-1.09;84.77
78855;BME280;68206;59.956;30.234;2023-03-12T01:57:26;98285.31;;;-1.10;83.95
78855;BME280;68206;59.956;30.234;2023-03-12T02:00:02;98281.91;;;-1.12;84.42
78855;BME280;68206;59.956;30.234;2023-03-12T02:02:40;98273.28;;;-1.14;83.85
78855;BME280;68206;59.956;30.234;2023-03-12T02:05:16;98272.41;;;-1.13;83.73
78855;BME280;68206;59.956;30.234;2023-03-12T02:07:46;98276.66;;;-1.11;83.78
78855;BME280;68206;59.956;30.234;2023-03-12T02:10:14;98268.09;;;-1.14;82.90
78855;BME280;68206;59.956;30.234;2023-03-12T02:12:44;98267.25;;;-1.16;83.07
78855;BME280;68206;59.956;30.234;2023-03-12T02:15:12;98272.53;;;-1.19;83.79
78855;BME280;68206;59.956;30.234;2023-03-12T02:17:40;98270.06;;;-1.26;83.81
78855;BME280;68206;59.956;30.234;2023-03-12T02:20:14;98273.56;;;-1.27;83.80
78855;BME280;68206;59.956;30.234;2023-03-12T02:22:50;98269.22;;;-1.26;82.97
78855;BME280;68206;59.956;30.234;2023-03-12T02:25:29;98264.91;;;-1.27;83.59
78855;BME280;68206;59.956;30.234;2023-03-12T02:27:59;98266.69;;;-1.31;83.60
78855;BME280;68206;59.956;30.234;2023-03-12T02:30:29;98272.63;;;-1.24;84.51
78855;BME280;68206;59.956;30.234;2023-03-12T02:32:58;98265.84;;;-1.31;83.31
78855;BME280;68206;59.956;30.234;2023-03-12T02:35:28;98264.06;;;-1.29;83.55
78855;BME280;68206;59.956;30.234;2023-03-12T02:37:57;98265.78;;;-1.28;83.79
78855;BME280;68206;59.956;30.234;2023-03-12T02:40:30;98255.34;;;-1.25;82.98
78855;BME280;68206;59.956;30.234;2023-03-12T02:43:01;98264.94;;;-1.29;83.19
78855;BME280;68206;59.956;30.234;2023-03-12T02:45:30;98260.72;;;-1.34;83.10
78855;BME280;68206;59.956;30.234;2023-03-12T02:48:00;98263.28;;;-1.33;81.88
78855;BME280;68206;59.956;30.234;2023-03-12T02:50:28;98265.91;;;-1.34;83.07
78855;BME280;68206;59.956;30.234;2023-03-12T02:52:56;98263.47;;;-1.42;82.99
78855;BME280;68206;59.956;30.234;2023-03-12T02:55:25;98265.97;;;-1.37;83.47
78855;BME280;68206;59.956;30.234;2023-03-12T02:57:55;98262.63;;;-1.42;82.01
78855;BME280;68206;59.956;30.234;2023-03-12T03:00:23;98263.56;;;-1.45;82.17
78855;BME280;68206;59.956;30.234;2023-03-12T03:02:52;98273.94;;;-1.45;83.81
78855;BME280;68206;59.956;30.234;2023-03-12T03:05:20;98281.78;;;-1.48;83.06
78855;BME280;68206;59.956;30.234;2023-03-12T03:07:49;98275.75;;;-1.50;82.72
78855;BME280;68206;59.956;30.234;2023-03-12T03:10:17;98273.25;;;-1.53;83.21
78855;BME280;68206;59.956;30.234;2023-03-12T03:12:46;98274.97;;;-1.52;83.13
78855;BME280;68206;59.956;30.234;2023-03-12T03:15:15;98270.69;;;-1.56;82.16
78855;BME280;68206;59.956;30.234;2023-03-12T03:17:44;98262.91;;;-1.56;83.01
78855;BME280;68206;59.956;30.234;2023-03-12T03:20:12;98281.09;;;-1.56;83.42
78855;BME280;68206;59.956;30.234;2023-03-12T03:22:40;98269.00;;;-1.57;83.73
78855;BME280;68206;59.956;30.234;2023-03-12T03:25:09;98267.25;;;-1.56;83.09
78855;BME280;68206;59.956;30.234;2023-03-12T03:27:37;98269.00;;;-1.57;82.85
78855;BME280;68206;59.956;30.234;2023-03-12T03:30:07;98269.06;;;-1.60;83.04
78855;BME280;68206;59.956;30.234;2023-03-12T03:32:41;98260.50;;;-1.65;82.52
78855;BME280;68206;59.956;30.234;2023-03-12T03:35:10;98268.28;;;-1.64;82.24
78855;BME280;68206;59.956;30.234;2023-03-12T03:37:39;98266.53;;;-1.63;82.91
78855;BME280;68206;59.956;30.234;2023-03-12T03:40:08;98263.94;;;-1.63;81.92
78855;BME280;68206;59.956;30.234;2023-03-12T03:42:38;98263.97;;;-1.66;82.15
78855;BME280;68206;59.956;30.234;2023-03-12T03:45:08;98254.44;;;-1.66;82.34
78855;BME280;68206;59.956;30.234;2023-03-12T03:47:38;98259.69;;;-1.69;81.75
78855;BME280;68206;59.956;30.234;2023-03-12T03:50:10;98260.59;;;-1.70;81.19
78855;BME280;68206;59.956;30.234;2023-03-12T03:52:39;98255.34;;;-1.68;81.49
78855;BME280;68206;59.956;30.234;2023-03-12T03:55:08;98265.81;;;-1.71;81.29
78855;BME280;68206;59.956;30.234;2023-03-12T03:57:37;98264.19;;;-1.75;82.40
78855;BME280;68206;59.956;30.234;2023-03-12T04:00:07;98263.34;;;-1.77;82.23
78855;BME280;68206;59.956;30.234;2023-03-12T04:02:42;98264.22;;;-1.78;83.35
78855;BME280;68206;59.956;30.234;2023-03-12T04:05:13;98265.94;;;-1.77;81.81
78855;BME280;68206;59.956;30.234;2023-03-12T04:07:47;98259.88;;;-1.78;82.39
78855;BME280;68206;59.956;30.234;2023-03-12T04:10:18;98274.56;;;-1.75;82.32
78855;BME280;68206;59.956;30.234;2023-03-12T04:12:47;98264.31;;;-1.81;81.04
78855;BME280;68206;59.956;30.234;2023-03-12T04:15:15;98259.16;;;-1.84;80.88
78855;BME280;68206;59.956;30.234;2023-03-12T04:17:46;98270.41;;;-1.84;82.17
78855;BME280;68206;59.956;30.234;2023-03-12T04:20:17;98271.25;;;-1.83;81.76
78855;BME280;68206;59.956;30.234;2023-03-12T04:22:45;98270.41;;;-1.84;81.32
78855;BME280;68206;59.956;30.234;2023-03-12T04:25:15;98275.59;;;-1.84;81.46
78855;BME280;68206;59.956;30.234;2023-03-12T04:27:43;98270.50;;;-1.88;81.08
78855;BME280;68206;59.956;30.234;2023-03-12T04:30:12;98270.44;;;-1.87;80.90
78855;BME280;68206;59.956;30.234;2023-03-12T04:32:41;98269.63;;;-1.89;80.77
78855;BME280;68206;59.956;30.234;2023-03-12T04:35:09;98269.69;;;-1.92;81.34
78855;BME280;68206;59.956;30.234;2023-03-12T04:37:39;98265.31;;;-1.90;82.08
78855;BME280;68206;59.956;30.234;2023-03-12T04:40:09;98269.66;;;-1.90;81.11
78855;BME280;68206;59.956;30.234;2023-03-12T04:42:38;98263.50;;;-1.86;81.66
78855;BME280;68206;59.956;30.234;2023-03-12T04:45:08;98267.06;;;-1.90;81.77
78855;BME280;68206;59.956;30.234;2023-03-12T04:47:43;98273.13;;;-1.91;82.18
78855;BME280;68206;59.956;30.234;2023-03-12T04:50:11;98274.00;;;-1.92;81.55
78855;BME280;68206;59.956;30.234;2023-03-12T04:52:41;98267.91;;;-1.88;81.49
78855;BME280;68206;59.956;30.234;2023-03-12T04:55:10;98271.41;;;-1.91;82.38
78855;BME280;68206;59.956;30.234;2023-03-12T04:57:38;98266.19;;;-1.91;82.31
78855;BME280;68206;59.956;30.234;2023-03-12T05:00:08;98267.03;;;-1.89;80.63
78855;BME280;68206;59.956;30.234;2023-03-12T05:02:40;98277.44;;;-1.89;81.59
78855;BME280;68206;59.956;30.234;2023-03-12T05:05:10;98278.28;;;-1.88;82.44
78855;BME280;68206;59.956;30.234;2023-03-12T05:07:40;98281.69;;;-1.86;82.73
78855;BME280;68206;59.956;30.234;2023-03-12T05:10:09;98265.19;;;-1.84;82.12
78855;BME280;68206;59.956;30.234;2023-03-12T05:12:37;98270.31;;;-1.81;82.35
78855;BME280;68206;59.956;30.234;2023-03-12T05:15:07;98267.66;;;-1.76;81.45
78855;BME280;68206;59.956;30.234;2023-03-12T05:17:35;98263.38;;;-1.79;82.68
78855;BME280;68206;59.956;30.234;2023-03-12T05:20:05;98272.84;;;-1.76;82.62
78855;BME280;68206;59.956;30.234;2023-03-12T05:22:33;98277.97;;;-1.73;82.30
78855;BME280;68206;59.956;30.234;2023-03-12T05:25:03;98279.69;;;-1.72;81.12
78855;BME280;68206;59.956;30.234;2023-03-12T05:27:32;98275.38;;;-1.73;81.06
78855;BME280;68206;59.956;30.234;2023-03-12T05:30:01;98272.75;;;-1.72;80.78
78855;BME280;68206;59.956;30.234;2023-03-12T05:32:30;98266.69;;;-1.72;81.16
78855;BME280;68206;59.956;30.234;2023-03-12T05:34:59;98269.28;;;-1.71;80.85
78855;BME280;68206;59.956;30.234;2023-03-12T05:37:28;98276.19;;;-1.70;81.54
78855;BME280;68206;59.956;30.234;2023-03-12T05:39:58;98277.81;;;-1.66;80.58
78855;BME280;68206;59.956;30.234;2023-03-12T05:42:29;98282.13;;;-1.63;80.47
78855;BME280;68206;59.956;30.234;2023-03-12T05:44:58;98284.72;;;-1.63;79.42
78855;BME280;68206;59.956;30.234;2023-03-12T05:47:26;98285.50;;;-1.59;80.36
78855;BME280;68206;59.956;30.234;2023-03-12T05:49:54;98304.59;;;-1.62;80.76
78855;BME280;68206;59.956;30.234;2023-03-12T05:52:22;98297.75;;;-1.65;81.56
78855;BME280;68206;59.956;30.234;2023-03-12T05:54:51;98306.41;;;-1.64;81.34
78855;BME280;68206;59.956;30.234;2023-03-12T05:57:19;98317.72;;;-1.68;81.10
78855;BME280;68206;59.956;30.234;2023-03-12T05:59:48;98311.63;;;-1.67;80.30
78855;BME280;68206;59.956;30.234;2023-03-12T06:02:19;98314.09;;;-1.61;80.41
78855;BME280;68206;59.956;30.234;2023-03-12T06:04:47;98320.16;;;-1.60;80.50
78855;BME280;68206;59.956;30.234;2023-03-12T06:07:15;98324.47;;;-1.59;79.40
78855;BME280;68206;59.956;30.234;2023-03-12T06:09:44;98329.69;;;-1.61;80.42
78855;BME280;68206;59.956;30.234;2023-03-12T06:12:13;98324.50;;;-1.61;79.02
78855;BME280;68206;59.956;30.234;2023-03-12T06:14:41;98321.91;;;-1.61;78.63
78855;BME280;68206;59.956;30.234;2023-03-12T06:17:11;98322.00;;;-1.66;79.04
78855;BME280;68206;59.956;30.234;2023-03-12T06:19:39;98315.97;;;-1.68;78.63
78855;BME280;68206;59.956;30.234;2023-03-12T06:22:07;98330.75;;;-1.70;79.94
78855;BME280;68206;59.956;30.234;2023-03-12T06:24:36;98334.97;;;-1.64;79.31
78855;BME280;68206;59.956;30.234;2023-03-12T06:27:05;98335.84;;;-1.65;80.33
78855;BME280;68206;59.956;30.234;2023-03-12T06:29:33;98338.38;;;-1.62;79.24
78855;BME280;68206;59.956;30.234;2023-03-12T06:32:02;98339.19;;;-1.58;78.22
78855;BME280;68206;59.956;30.234;2023-03-12T06:34:31;98332.31;;;-1.61;78.52
78855;BME280;68206;59.956;30.234;2023-03-12T06:36:59;98332.38;;;-1.64;78.18
78855;BME280;68206;59.956;30.234;2023-03-12T06:39:27;98341.03;;;-1.64;78.21
78855;BME280;68206;59.956;30.234;2023-03-12T06:41:56;98341.03;;;-1.64;79.22
78855;BME280;68206;59.956;30.234;2023-03-12T06:44:24;98355.75;;;-1.64;78.39
78855;BME280;68206;59.956;30.234;2023-03-12T06:46:52;98349.72;;;-1.66;78.94
78855;BME280;68206;59.956;30.234;2023-03-12T06:49:20;98341.81;;;-1.60;77.52
78855;BME280;68206;59.956;30.234;2023-03-12T06:51:50;98359.13;;;-1.59;76.97
78855;BME280;68206;59.956;30.234;2023-03-12T06:54:18;98357.41;;;-1.60;77.96
78855;BME280;68206;59.956;30.234;2023-03-12T06:56:46;98353.94;;;-1.59;77.24
78855;BME280;68206;59.956;30.234;2023-03-12T06:59:14;98362.59;;;-1.58;77.79
78855;BME280;68206;59.956;30.234;2023-03-12T07:01:44;98359.25;;;-1.65;78.08
78855;BME280;68206;59.956;30.234;2023-03-12T07:04:12;98364.31;;;-1.59;78.33
78855;BME280;68206;59.956;30.234;2023-03-12T07:06:40;98355.75;;;-1.64;77.51
78855;BME280;68206;59.956;30.234;2023-03-12T07:09:09;98355.75;;;-1.64;78.84
78855;BME280;68206;59.956;30.234;2023-03-12T07:11:38;98370.50;;;-1.65;77.14
78855;BME280;68206;59.956;30.234;2023-03-12T07:14:06;98373.13;;;-1.66;76.54
78855;BME280;68206;59.956;30.234;2023-03-12T07:16:34;98363.69;;;-1.70;77.17
78855;BME280;68206;59.956;30.234;2023-03-12T07:19:02;98374.13;;;-1.75;77.43
78855;BME280;68206;59.956;30.234;2023-03-12T07:21:30;98362.94;;;-1.77;78.00
78855;BME280;68206;59.956;30.234;2023-03-12T07:23:58;98368.00;;;-1.71;76.08
78855;BME280;68206;59.956;30.234;2023-03-12T07:26:31;98368.03;;;-1.72;78.39
78855;BME280;68206;59.956;30.234;2023-03-12T07:28:59;98368.00;;;-1.69;77.62
78855;BME280;68206;59.956;30.234;2023-03-12T07:31:27;98368.00;;;-1.69;78.44
78855;BME280;68206;59.956;30.234;2023-03-12T07:33:56;98374.84;;;-1.65;77.33
78855;BME280;68206;59.956;30.234;2023-03-12T07:36:24;98374.69;;;-1.57;77.46
78855;BME280;68206;59.956;30.234;2023-03-12T07:38:52;98381.56;;;-1.55;76.77
78855;BME280;68206;59.956;30.234;2023-03-12T07:41:20;98382.41;;;-1.54;77.52
78855;BME280;68206;59.956;30.234;2023-03-12T07:43:50;98385.03;;;-1.56;76.85
78855;BME280;68206;59.956;30.234;2023-03-12T07:46:18;98394.56;;;-1.55;77.92
78855;BME280;68206;59.956;30.234;2023-03-12T07:48:46;98389.34;;;-1.55;76.85
78855;BME280;68206;59.956;30.234;2023-03-12T07:51:14;98397.09;;;-1.50;77.78
78855;BME280;68206;59.956;30.234;2023-03-12T07:53:42;98393.56;;;-1.48;77.73
78855;BME280;68206;59.956;30.234;2023-03-12T07:56:11;98400.47;;;-1.47;77.60
78855;BME280;68206;59.956;30.234;2023-03-12T07:58:39;98397.84;;;-1.44;76.97
78855;BME280;68206;59.956;30.234;2023-03-12T08:01:09;98402.09;;;-1.41;76.02
78855;BME280;68206;59.956;30.234;2023-03-12T08:03:37;98403.84;;;-1.42;75.67
78855;BME280;68206;59.956;30.234;2023-03-12T08:06:06;98403.91;;;-1.45;75.79
78855;BME280;68206;59.956;30.234;2023-03-12T08:08:34;98395.25;;;-1.44;75.97
78855;BME280;68206;59.956;30.234;2023-03-12T08:11:04;98400.44;;;-1.44;77.63
78855;BME280;68206;59.956;30.234;2023-03-12T08:13:33;98392.66;;;-1.45;75.65
78855;BME280;68206;59.956;30.234;2023-03-12T08:16:01;98406.44;;;-1.42;74.99
78855;BME280;68206;59.956;30.234;2023-03-12T08:18:32;98406.53;;;-1.46;76.14
78855;BME280;68206;59.956;30.234;2023-03-12T08:21:00;98411.72;;;-1.45;76.41
78855;BME280;68206;59.956;30.234;2023-03-12T08:23:28;98416.97;;;-1.48;76.61
78855;BME280;68206;59.956;30.234;2023-03-12T08:25:57;98426.50;;;-1.48;76.23
78855;BME280;68206;59.956;30.234;2023-03-12T08:28:25;98410.03;;;-1.49;76.12
78855;BME280;68206;59.956;30.234;2023-03-12T08:30:54;98417.91;;;-1.52;76.74
78855;BME280;68206;59.956;30.234;2023-03-12T08:33:23;98423.91;;;-1.48;75.29
78855;BME280;68206;59.956;30.234;2023-03-12T08:35:52;98424.81;;;-1.51;76.05
78855;BME280;68206;59.956;30.234;2023-03-12T08:38:21;98424.81;;;-1.51;76.95
78855;BME280;68206;59.956;30.234;2023-03-12T08:40:54;98425.53;;;-1.43;75.25
78855;BME280;68206;59.956;30.234;2023-03-12T08:43:22;98432.41;;;-1.39;77.63
78855;BME280;68206;59.956;30.234;2023-03-12T08:45:54;98439.25;;;-1.35;77.76
78855;BME280;68206;59.956;30.234;2023-03-12T08:48:22;98444.31;;;-1.27;75.97
78855;BME280;68206;59.956;30.234;2023-03-12T08:50:53;98456.44;;;-1.26;75.30
78855;BME280;68206;59.956;30.234;2023-03-12T08:53:22;98459.81;;;-1.23;74.52
78855;BME280;68206;59.956;30.234;2023-03-12T08:55:51;98446.91;;;-1.27;74.04
78855;BME280;68206;59.956;30.234;2023-03-12T08:58:19;98458.19;;;-1.28;73.37
78855;BME280;68206;59.956;30.234;2023-03-12T09:00:48;98458.31;;;-1.34;75.06
78855;BME280;68206;59.956;30.234;2023-03-12T09:03:16;98461.78;;;-1.35;74.93
78855;BME280;68206;59.956;30.234;2023-03-12T09:05:44;98466.00;;;-1.28;73.44
78855;BME280;68206;59.956;30.234;2023-03-12T09:08:14;98465.97;;;-1.27;73.31
78855;BME280;68206;59.956;30.234;2023-03-12T09:10:46;98467.72;;;-1.29;73.30
78855;BME280;68206;59.956;30.234;2023-03-12T09:13:15;98468.59;;;-1.28;72.89
78855;BME280;68206;59.956;30.234;2023-03-12T09:15:43;98481.59;;;-1.30;73.49
78855;BME280;68206;59.956;30.234;2023-03-12T09:18:11;98472.16;;;-1.32;74.63
78855;BME280;68206;59.956;30.234;2023-03-12T09:20:41;98483.34;;;-1.30;73.48
78855;BME280;68206;59.956;30.234;2023-03-12T09:23:09;98479.97;;;-1.35;73.13
78855;BME280;68206;59.956;30.234;2023-03-12T09:25:38;98498.19;;;-1.37;73.08
78855;BME280;68206;59.956;30.234;2023-03-12T09:28:07;98495.56;;;-1.34;72.72
78855;BME280;68206;59.956;30.234;2023-03-12T09:30:35;98491.13;;;-1.27;72.36
78855;BME280;68206;59.956;30.234;2023-03-12T09:33:04;98504.09;;;-1.26;73.09
78855;BME280;68206;59.956;30.234;2023-03-12T09:35:32;98500.53;;;-1.20;72.44
78855;BME280;68206;59.956;30.234;2023-03-12T09:38:00;98497.88;;;-1.18;71.37
78855;BME280;68206;59.956;30.234;2023-03-12T09:40:30;98510.88;;;-1.18;71.34
78855;BME280;68206;59.956;30.234;2023-03-12T09:43:02;98502.06;;;-1.11;72.77
78855;BME280;68206;59.956;30.234;2023-03-12T09:45:35;98505.38;;;-1.02;75.25
78855;BME280;68206;59.956;30.234;2023-03-12T09:48:06;98519.03;;;-0.89;72.50
78855;BME280;68206;59.956;30.234;2023-03-12T09:50:41;98518.94;;;-0.86;72.69
78855;BME280;68206;59.956;30.234;2023-03-12T09:53:15;98524.91;;;-0.81;74.51
78855;BME280;68206;59.956;30.234;2023-03-12T09:55:50;98529.13;;;-0.74;73.89
78855;BME280;68206;59.956;30.234;2023-03-12T09:58:25;98537.63;;;-0.64;71.99
78855;BME280;68206;59.956;30.234;2023-03-12T10:00:59;98535.78;;;-0.59;72.31
78855;BME280;68206;59.956;30.234;2023-03-12T10:03:48;98546.91;;;-0.51;71.96
78855;BME280;68206;59.956;30.234;2023-03-12T10:06:21;98529.34;;;-0.42;71.63
78855;BME280;68206;59.956;30.234;2023-03-12T10:09:02;98544.59;;;-0.25;70.07
78855;BME280;68206;59.956;30.234;2023-03-12T10:11:41;98548.97;;;-0.25;72.22
78855;BME280;68206;59.956;30.234;2023-03-12T10:14:21;98554.25;;;-0.28;69.72
78855;BME280;68206;59.956;30.234;2023-03-12T10:17:02;98555.19;;;-0.32;70.35
78855;BME280;68206;59.956;30.234;2023-03-12T10:19:41;98552.53;;;-0.29;70.09
78855;BME280;68206;59.956;30.234;2023-03-12T10:22:21;98564.53;;;-0.22;69.37
78855;BME280;68206;59.956;30.234;2023-03-12T10:25:00;98561.81;;;-0.18;69.57
78855;BME280;68206;59.956;30.234;2023-03-12T10:27:33;98572.91;;;-0.08;68.79
78855;BME280;68206;59.956;30.234;2023-03-12T10:30:12;98573.63;;;0.00;64.84
78855;BME280;68206;59.956;30.234;2023-03-12T10:32:47;98573.81;;;-0.11;67.02
78855;BME280;68206;59.956;30.234;2023-03-12T10:35:18;98581.03;;;-0.22;66.83
78855;BME280;68206;59.956;30.234;2023-03-12T10:37:49;98584.59;;;-0.27;66.13
78855;BME280;68206;59.956;30.234;2023-03-12T10:40:21;98573.59;;;-0.42;65.69
78855;BME280;68206;59.956;30.234;2023-03-12T10:42:49;98592.06;;;-0.54;65.19
78855;BME280;68206;59.956;30.234;2023-03-12T10:45:25;98586.34;;;-0.71;66.50
78855;BME280;68206;59.956;30.234;2023-03-12T10:48:01;98603.84;;;-0.81;67.10
78855;BME280;68206;59.956;30.234;2023-03-12T10:50:32;98590.91;;;-0.84;66.72
78855;BME280;68206;59.956;30.234;2023-03-12T10:53:28;98610.84;;;-0.84;67.71
78855;BME280;68206;59.956;30.234;2023-03-12T10:56:00;98612.50;;;-0.80;65.78
78855;BME280;68206;59.956;30.234;2023-03-12T10:58:34;98612.41;;;-0.74;65.01
78855;BME280;68206;59.956;30.234;2023-03-12T11:01:14;98613.34;;;-0.76;63.79
78855;BME280;68206;59.956;30.234;2023-03-12T11:03:43;98615.09;;;-0.78;62.78
78855;BME280;68206;59.956;30.234;2023-03-12T11:06:20;98616.00;;;-0.81;61.58
78855;BME280;68206;59.956;30.234;2023-03-12T11:09:03;98619.66;;;-0.91;63.52
78855;BME280;68206;59.956;30.234;2023-03-12T11:11:48;98621.59;;;-1.02;63.30
78855;BME280;68206;59.956;30.234;2023-03-12T11:14:19;98626.88;;;-1.07;65.63
78855;BME280;68206;59.956;30.234;2023-03-12T11:16:49;98617.34;;;-1.08;65.33
78855;BME280;68206;59.956;30.234;2023-03-12T11:19:29;98631.81;;;-0.93;62.08
78855;BME280;68206;59.956;30.234;2023-03-12T11:21:58;98629.38;;;-1.01;61.76
78855;BME280;68206;59.956;30.234;2023-03-12T11:24:27;98619.88;;;-1.03;61.35
78855;BME280;68206;59.956;30.234;2023-03-12T11:26:58;98607.94;;;-1.15;62.66
78855;BME280;68206;59.956;30.234;2023-03-12T11:29:31;98624.41;;;-1.16;61.53
78855;BME280;68206;59.956;30.234;2023-03-12T11:32:09;98628.75;;;-1.16;62.50
78855;BME280;68206;59.956;30.234;2023-03-12T11:34:43;98621.97;;;-1.25;62.05
78855;BME280;68206;59.956;30.234;2023-03-12T11:37:16;98618.53;;;-1.29;61.85
78855;BME280;68206;59.956;30.234;2023-03-12T11:39:57;98621.97;;;-1.25;61.35
78855;BME280;68206;59.956;30.234;2023-03-12T11:42:40;98638.47;;;-1.29;62.25
78855;BME280;68206;59.956;30.234;2023-03-12T11:45:17;98646.19;;;-1.23;62.17
78855;BME280;68206;59.956;30.234;2023-03-12T11:47:58;98635.03;;;-1.30;62.18
78855;BME280;68206;59.956;30.234;2023-03-12T11:50:36;98637.59;;;-1.27;61.96
78855;BME280;68206;59.956;30.234;2023-03-12T11:53:19;98648.00;;;-1.27;61.84
78855;BME280;68206;59.956;30.234;2023-03-12T11:56:03;98651.47;;;-1.29;61.44
78855;BME280;68206;59.956;30.234;2023-03-12T11:58:46;98657.63;;;-1.35;61.11
78855;BME280;68206;59.956;30.234;2023-03-12T12:01:21;98658.56;;;-1.39;61.54
78855;BME280;68206;59.956;30.234;2023-03-12T12:04:09;98676.03;;;-1.50;60.39
78855;BME280;68206;59.956;30.234;2023-03-12T12:06:50;98674.44;;;-1.58;62.03
78855;BME280;68206;59.956;30.234;2023-03-12T12:09:27;98672.03;;;-1.71;63.36
78855;BME280;68206;59.956;30.234;2023-03-12T12:12:08;98682.47;;;-1.75;63.59
78855;BME280;68206;59.956;30.234;2023-03-12T12:14:59;98684.22;;;-1.77;64.31
78855;BME280;68206;59.956;30.234;2023-03-12T12:17:40;98695.41;;;-1.69;64.96
78855;BME280;68206;59.956;30.234;2023-03-12T12:20:20;98683.22;;;-1.67;64.27
78855;BME280;68206;59.956;30.234;2023-03-12T12:23:03;98695.31;;;-1.65;63.20
78855;BME280;68206;59.956;30.234;2023-03-12T12:25:45;98711.63;;;-1.52;60.82
78855;BME280;68206;59.956;30.234;2023-03-12T12:28:19;98702.88;;;-1.46;58.85
78855;BME280;68206;59.956;30.234;2023-03-12T12:31:03;98698.53;;;-1.46;60.33
78855;BME280;68206;59.956;30.234;2023-03-12T12:33:47;98711.56;;;-1.47;60.07
78855;BME280;68206;59.956;30.234;2023-03-12T12:36:23;98710.69;;;-1.49;57.69
78855;BME280;68206;59.956;30.234;2023-03-12T12:38:56;98718.56;;;-1.54;59.65
78855;BME280;68206;59.956;30.234;2023-03-12T12:41:30;98736.75;;;-1.54;59.75
78855;BME280;68206;59.956;30.234;2023-03-12T12:44:01;98733.38;;;-1.59;59.03
78855;BME280;68206;59.956;30.234;2023-03-12T12:46:34;98735.09;;;-1.58;58.44
78855;BME280;68206;59.956;30.234;2023-03-12T12:49:09;98740.38;;;-1.64;61.24
78855;BME280;68206;59.956;30.234;2023-03-12T12:51:43;98742.09;;;-1.63;59.86
78855;BME280;68206;59.956;30.234;2023-03-12T12:54:21;98756.06;;;-1.73;61.04
78855;BME280;68206;59.956;30.234;2023-03-12T12:56:57;98751.69;;;-1.70;59.75
78855;BME280;68206;59.956;30.234;2023-03-12T12:59:33;98746.50;;;-1.70;61.08
78855;BME280;68206;59.956;30.234;2023-03-12T13:02:10;98756.81;;;-1.64;59.48
78855;BME280;68206;59.956;30.234;2023-03-12T13:04:43;98762.81;;;-1.57;59.70
78855;BME280;68206;59.956;30.234;2023-03-12T13:07:31;98761.88;;;-1.51;59.93
78855;BME280;68206;59.956;30.234;2023-03-12T13:10:06;98773.09;;;-1.49;59.90